sensor_id;sensor_type;location;lat;lon;timestamp;pressure;altitude;pressure_sealevel;temperature;humidity
8627;BME280;4351;51.422;6.794;2023-06-26T00:01:55;101173.91;;;22.84;100.00
8627;BME280;4351;51.422;6.794;2023-06-26T00:04:23;101173.56;;;22.79;100.00
8627;BME280;4351;51.422;6.794;2023-06-26T00:06:51;101178.19;;;22.79;100.00
8627;BME280;4351;51.422;6.794;2023-06-26T00:09:19;101177.50;;;22.77;100.00
8627;BME280;4351;51.422;6.794;2023-06-26T00:11:47;101180.06;;;22.78;100.00
8627;BME280;4351;51.422;6.794;2023-06-26T00:14:16;101172.47;;;22.72;100.00
8627;BME280;4351;51.422;6.794;2023-06-26T00:16:45;101176.25;;;22.71;100.00
8627;BME280;4351;51.422;6.794;2023-06-26T00:19:13;101179.16;;;22.69;100.00
8627;BME280;4351;51.422;6.794;2023-06-26T00:21:41;101171.09;;;22.68;100.00
8627;BME280;4351;51.422;6.794;2023-06-26T00:24:14;101189.28;;;22.69;100.00
8627;BME280;4351;51.422;6.794;2023-06-26T00:26:42;101179.16;;;22.69;100.00
8627;BME280;4351;51.422;6.794;2023-06-26T00:29:10;101178.47;;;22.67;100.00
8627;BME280;4351;51.422;6.794;2023-06-26T00:31:39;101177.88;;;22.55;100.00
8627;BME280;4351;51.422;6.794;2023-06-26T00:34:07;101181.94;;;22.51;100.00
8627;BME280;4351;51.422;6.794;2023-06-26T00:36:35;101175.94;;;22.56;100.00
8627;BME280;4351;51.422;6.794;2023-06-26T00:39:03;101177.53;;;22.58;100.00
8627;BME280;4351;51.422;6.794;2023-06-26T00:41:34;101180.22;;;22.50;100.00
8627;BME280;4351;51.422;6.794;2023-06-26T00:44:03;101184.63;;;22.43;100.00
8627;BME280;4351;51.422;6.794;2023-06-26T00:46:32;101174.50;;;22.43;100.00
8627;BME280;4351;51.422;6.794;2023-06-26T00:49:02;101174.69;;;22.42;100.00
8627;BME280;4351;51.422;6.794;2023-06-26T00:51:31;101174.00;;;22.39;100.00
8627;BME280;4351;51.422;6.794;2023-06-26T00:53:59;101177.75;;;22.38;100.00
8627;BME280;4351;51.422;6.794;2023-06-26T00:56:27;101174.28;;;22.36;100.00
8627;BME280;4351;51.422;6.794;2023-06-26T00:58:56;101177.53;;;22.32;100.00
8627;BME280;4351;51.422;6.794;2023-06-26T01:01:25;101171.81;;;22.25;100.00
8627;BME280;4351;51.422;6.794;2023-06-26T01:03:53;101173.00;;;22.22;100.00
8627;BME280;4351;51.422;6.794;2023-06-26T01:06:27;101173.84;;;22.23;100.00
8627;BME280;4351;51.422;6.794;2023-06-26T01:08:58;101177.41;;;22.15;100.00
8627;BME280;4351;51.422;6.794;2023-06-26T01:11:26;101159.19;;;22.14;100.00
8627;BME280;4351;51.422;6.794;2023-06-26T01:13:54;101167.31;;;21.97;100.00
8627;BME280;4351;51.422;6.794;2023-06-26T01:16:24;101162.44;;;22.09;100.00
8627;BME280;4351;51.422;6.794;2023-06-26T01:18:53;101166.59;;;22.13;100.00
8627;BME280;4351;51.422;6.794;2023-06-26T01:21:21;101166.19;;;22.08;100.00
8627;BME280;4351;51.422;6.794;2023-06-26T01:24:06;101156.25;;;21.89;100.00
8627;BME280;4351;51.422;6.794;2023-06-26T01:26:38;101163.38;;;22.00;100.00
8627;BME280;4351;51.422;6.794;2023-06-26T01:29:09;101156.31;;;21.79;100.00
8627;BME280;4351;51.422;6.794;2023-06-26T01:31:39;101163.09;;;21.85;100.00
8627;BME280;4351;51.422;6.794;2023-06-26T01:34:07;101157.69;;;21.83;100.00
8627;BME280;4351;51.422;6.794;2023-06-26T01:36:35;101151.13;;;21.76;100.00
8627;BME280;4351;51.422;6.794;2023-06-26T01:39:04;101151.78;;;21.88;100.00
8627;BME280;4351;51.422;6.794;2023-06-26T01:41:33;101149.56;;;21.73;100.00
8627;BME280;4351;51.422;6.794;2023-06-26T01:44:13;101150.75;;;21.70;100.00
8627;BME280;4351;51.422;6.794;2023-06-26T01:46:49;101150.03;;;21.68;100.00
8627;BME280;4351;51.422;6.794;2023-06-26T01:49:26;101151.06;;;21.67;100.00
8627;BME280;4351;51.422;6.794;2023-06-26T01:52:04;101160.38;;;21.75;100.00
8627;BME280;4351;51.422;6.794;2023-06-26T01:54:37;101151.06;;;21.67;100.00
8627;BME280;4351;51.422;6.794;2023-06-26T01:57:08;101152.94;;;21.67;100.00
8627;BME280;4351;51.422;6.794;2023-06-26T01:59:38;101151.06;;;21.67;100.00
8627;BME280;4351;51.422;6.794;2023-06-26T02:02:08;101154.91;;;21.56;100.00
8627;BME280;4351;51.422;6.794;2023-06-26T02:04:36;101151.66;;;21.61;100.00
8627;BME280;4351;51.422;6.794;2023-06-26T02:07:05;101162.34;;;21.64;100.00
8627;BME280;4351;51.422;6.794;2023-06-26T02:09:33;101172.69;;;21.52;100.00
8627;BME280;4351;51.422;6.794;2023-06-26T02:12:01;101169.19;;;21.60;100.00
8627;BME280;4351;51.422;6.794;2023-06-26T02:14:29;101163.44;;;21.53;100.00
8627;BME280;4351;51.422;6.794;2023-06-26T02:16:58;101168.69;;;21.46;100.00
8627;BME280;4351;51.422;6.794;2023-06-26T02:19:27;101175.22;;;21.45;100.00
8627;BME280;4351;51.422;6.794;2023-06-26T02:21:55;101170.44;;;21.47;100.00
8627;BME280;4351;51.422;6.794;2023-06-26T02:24:23;101174.50;;;21.43;100.00
8627;BME280;4351;51.422;6.794;2023-06-26T02:26:51;101173.84;;;21.31;100.00
8627;BME280;4351;51.422;6.794;2023-06-26T02:29:19;101174.63;;;21.23;100.00
8627;BME280;4351;51.422;6.794;2023-06-26T02:31:47;101183.94;;;21.31;100.00
8627;BME280;4351;51.422;6.794;2023-06-26T02:34:17;101187.00;;;21.28;100.00
8627;BME280;4351;51.422;6.794;2023-06-26T02:36:45;101183.09;;;21.30;100.00
8627;BME280;4351;51.422;6.794;2023-06-26T02:39:13;101192.25;;;21.21;100.00
8627;BME280;4351;51.422;6.794;2023-06-26T02:41:42;101198.59;;;21.21;100.00
8627;BME280;4351;51.422;6.794;2023-06-26T02:44:11;101197.72;;;21.21;100.00
8627;BME280;4351;51.422;6.794;2023-06-26T02:46:39;101202.34;;;21.20;100.00
8627;BME280;4351;51.422;6.794;2023-06-26T02:49:07;101200.63;;;21.19;100.00
8627;BME280;4351;51.422;6.794;2023-06-26T02:51:37;101203.38;;;21.19;100.00
8627;BME280;4351;51.422;6.794;2023-06-26T02:54:13;101206.00;;;21.11;100.00
8627;BME280;4351;51.422;6.794;2023-06-26T02:56:43;101209.63;;;21.11;100.00
8627;BME280;4351;51.422;6.794;2023-06-26T02:59:15;101213.22;;;21.12;100.00
8627;BME280;4351;51.422;6.794;2023-06-26T03:01:43;101218.44;;;20.95;100.00
8627;BME280;4351;51.422;6.794;2023-06-26T03:04:10;101228.09;;;21.09;100.00
8627;BME280;4351;51.422;6.794;2023-06-26T03:06:40;101229.00;;;21.00;100.00
8627;BME280;4351;51.422;6.794;2023-06-26T03:09:08;101232.16;;;21.05;100.00
8627;BME280;4351;51.422;6.794;2023-06-26T03:11:35;101231.25;;;21.15;100.00
8627;BME280;4351;51.422;6.794;2023-06-26T03:14:04;101238.06;;;21.10;100.00
8627;BME280;4351;51.422;6.794;2023-06-26T03:16:32;101229.78;;;21.20;100.00
8627;BME280;4351;51.422;6.794;2023-06-26T03:19:00;101234.81;;;21.25;100.00
8627;BME280;4351;51.422;6.794;2023-06-26T03:21:30;101225.94;;;21.59;100.00
8627;BME280;4351;51.422;6.794;2023-06-26T03:23:59;101228.53;;;21.79;100.00
8627;BME280;4351;51.422;6.794;2023-06-26T03:26:27;101218.31;;;22.00;100.00
8627;BME280;4351;51.422;6.794;2023-06-26T03:28:58;101229.00;;;21.85;100.00
8627;BME280;4351;51.422;6.794;2023-06-26T03:31:26;101233.88;;;21.81;100.00
8627;BME280;4351;51.422;6.794;2023-06-26T03:33:54;101229.28;;;22.00;100.00
8627;BME280;4351;51.422;6.794;2023-06-26T03:36:23;101229.59;;;21.97;100.00
8627;BME280;4351;51.422;6.794;2023-06-26T03:38:51;101227.78;;;22.05;100.00
8627;BME280;4351;51.422;6.794;2023-06-26T03:41:26;101229.94;;;21.93;100.00
8627;BME280;4351;51.422;6.794;2023-06-26T03:43:53;101228.91;;;21.94;100.00
8627;BME280;4351;51.422;6.794;2023-06-26T03:46:28;101241.63;;;21.96;100.00
8627;BME280;4351;51.422;6.794;2023-06-26T03:48:57;101242.25;;;21.89;100.00
8627;BME280;4351;51.422;6.794;2023-06-26T03:51:25;101244.50;;;21.94;100.00
8627;BME280;4351;51.422;6.794;2023-06-26T03:53:53;101239.19;;;21.92;100.00
8627;BME280;4351;51.422;6.794;2023-06-26T03:56:21;101240.28;;;22.00;100.00
8627;BME280;4351;51.422;6.794;2023-06-26T03:58:50;101249.94;;;22.04;100.00
8627;BME280;4351;51.422;6.794;2023-06-26T04:01:18;101248.53;;;22.00;100.00
8627;BME280;4351;51.422;6.794;2023-06-26T04:03:49;101249.22;;;22.02;100.00
8627;BME280;4351;51.422;6.794;2023-06-26T04:06:17;101251.56;;;21.97;100.00
8627;BME280;4351;51.422;6.794;2023-06-26T04:08:44;101249.53;;;21.99;100.00
8627;BME280;4351;51.422;6.794;2023-06-26T04:11:12;101250.50;;;21.89;100.00
8627;BME280;4351;51.422;6.794;2023-06-26T04:13:40;101253.78;;;21.93;100.00
8627;BME280;4351;51.422;6.794;2023-06-26T04:16:10;101255.81;;;21.91;100.00
8627;BME280;4351;51.422;6.794;2023-06-26T04:18:38;101264.41;;;21.78;100.00
8627;BME280;4351;51.422;6.794;2023-06-26T04:21:08;101266.44;;;21.76;100.00
8627;BME280;4351;51.422;6.794;2023-06-26T04:23:38;101270.44;;;21.81;100.00
8627;BME280;4351;51.422;6.794;2023-06-26T04:26:06;101271.78;;;21.77;100.00
8627;BME280;4351;51.422;6.794;2023-06-26T04:28:35;101270.59;;;21.80;100.00
8627;BME280;4351;51.422;6.794;2023-06-26T04:31:03;101272.47;;;21.89;100.00
8627;BME280;4351;51.422;6.794;2023-06-26T04:33:32;101271.88;;;21.86;100.00
8627;BME280;4351;51.422;6.794;2023-06-26T04:36:03;101283.03;;;21.84;100.00
8627;BME280;4351;51.422;6.794;2023-06-26T04:38:31;101270.44;;;21.81;100.00
8627;BME280;4351;51.422;6.794;2023-06-26T04:40:59;101279.13;;;21.77;100.00
8627;BME280;4351;51.422;6.794;2023-06-26T04:43:27;101285.19;;;21.80;100.00
8627;BME280;4351;51.422;6.794;2023-06-26T04:45:55;101280.78;;;21.98;100.00
8627;BME280;4351;51.422;6.794;2023-06-26T04:48:23;101275.06;;;21.81;100.00
8627;BME280;4351;51.422;6.794;2023-06-26T04:50:55;101281.78;;;21.97;100.00
8627;BME280;4351;51.422;6.794;2023-06-26T04:53:24;101277.38;;;21.86;100.00
8627;BME280;4351;51.422;6.794;2023-06-26T04:55:52;101285.47;;;21.87;100.00
8627;BME280;4351;51.422;6.794;2023-06-26T04:58:20;101280.13;;;22.04;100.00
8627;BME280;4351;51.422;6.794;2023-06-26T05:00:48;101293.09;;;21.93;100.00
8627;BME280;4351;51.422;6.794;2023-06-26T05:03:17;101297.25;;;21.98;100.00
8627;BME280;4351;51.422;6.794;2023-06-26T05:05:45;101290.09;;;22.23;100.00
8627;BME280;4351;51.422;6.794;2023-06-26T05:08:16;101299.91;;;21.89;100.00
8627;BME280;4351;51.422;6.794;2023-06-26T05:10:44;101298.81;;;22.00;100.00
8627;BME280;4351;51.422;6.794;2023-06-26T05:13:13;101314.53;;;21.80;100.00
8627;BME280;4351;51.422;6.794;2023-06-26T05:15:44;101313.50;;;21.81;100.00
8627;BME280;4351;51.422;6.794;2023-06-26T05:18:13;101303.38;;;22.10;100.00
8627;BME280;4351;51.422;6.794;2023-06-26T05:20:41;101312.78;;;21.89;100.00
8627;BME280;4351;51.422;6.794;2023-06-26T05:23:11;101316.47;;;21.98;100.00
8627;BME280;4351;51.422;6.794;2023-06-26T05:25:41;101320.03;;;21.80;100.00
8627;BME280;4351;51.422;6.794;2023-06-26T05:28:10;101325.91;;;21.57;100.00
8627;BME280;4351;51.422;6.794;2023-06-26T05:30:39;101330.66;;;21.65;100.00
8627;BME280;4351;51.422;6.794;2023-06-26T05:33:10;101338.47;;;21.59;100.00
8627;BME280;4351;51.422;6.794;2023-06-26T05:35:39;101343.56;;;21.54;100.00
8627;BME280;4351;51.422;6.794;2023-06-26T05:38:07;101347.41;;;21.62;100.00
8627;BME280;4351;51.422;6.794;2023-06-26T05:40:36;101335.81;;;21.68;100.00
8627;BME280;4351;51.422;6.794;2023-06-26T05:43:06;101340.75;;;21.64;100.00
8627;BME280;4351;51.422;6.794;2023-06-26T05:45:34;101338.88;;;21.65;100.00
8627;BME280;4351;51.422;6.794;2023-06-26T05:48:02;101338.03;;;21.92;100.00
8627;BME280;4351;51.422;6.794;2023-06-26T05:50:31;101344.41;;;21.93;100.00
8627;BME280;4351;51.422;6.794;2023-06-26T05:53:00;101348.47;;;21.79;100.00
8627;BME280;4351;51.422;6.794;2023-06-26T05:55:30;101343.22;;;21.67;100.00
8627;BME280;4351;51.422;6.794;2023-06-26T05:57:58;101353.63;;;21.64;100.00
8627;BME280;4351;51.422;6.794;2023-06-26T06:00:29;101347.16;;;21.83;100.00
8627;BME280;4351;51.422;6.794;2023-06-26T06:02:57;101350.25;;;21.70;100.00
8627;BME280;4351;51.422;6.794;2023-06-26T06:05:25;101352.91;;;21.62;100.00
8627;BME280;4351;51.422;6.794;2023-06-26T06:07:54;101358.75;;;21.77;100.00
8627;BME280;4351;51.422;6.794;2023-06-26T06:10:24;101348.47;;;21.79;100.00
8627;BME280;4351;51.422;6.794;2023-06-26T06:12:52;101349.44;;;21.59;100.00
8627;BME280;4351;51.422;6.794;2023-06-26T06:15:21;101369.44;;;21.80;100.00
8627;BME280;4351;51.422;6.794;2023-06-26T06:17:51;101361.09;;;21.43;100.00
8627;BME280;4351;51.422;6.794;2023-06-26T06:20:21;101377.56;;;21.33;100.00
8627;BME280;4351;51.422;6.794;2023-06-26T06:22:49;101388.38;;;21.35;100.00
8627;BME280;4351;51.422;6.794;2023-06-26T06:25:17;101388.94;;;21.48;100.00
8627;BME280;4351;51.422;6.794;2023-06-26T06:27:45;101388.09;;;21.76;100.00
8627;BME280;4351;51.422;6.794;2023-06-26T06:30:13;101382.94;;;21.63;100.00
8627;BME280;4351;51.422;6.794;2023-06-26T06:32:41;101389.91;;;21.57;100.00
8627;BME280;4351;51.422;6.794;2023-06-26T06:35:10;101393.97;;;21.53;100.00
8627;BME280;4351;51.422;6.794;2023-06-26T06:37:38;101390.47;;;21.61;100.00
8627;BME280;4351;51.422;6.794;2023-06-26T06:40:08;101401.16;;;21.64;100.00
8627;BME280;4351;51.422;6.794;2023-06-26T06:42:36;101412.69;;;21.68;100.00
8627;BME280;4351;51.422;6.794;2023-06-26T06:45:05;101413.56;;;21.68;100.00
8627;BME280;4351;51.422;6.794;2023-06-26T06:47:33;101416.78;;;21.92;100.00
8627;BME280;4351;51.422;6.794;2023-06-26T06:50:01;101415.63;;;21.94;100.00
8627;BME280;4351;51.422;6.794;2023-06-26T06:52:38;101417.66;;;21.92;100.00
8627;BME280;4351;51.422;6.794;2023-06-26T06:55:07;101413.22;;;22.10;100.00
8627;BME280;4351;51.422;6.794;2023-06-26T06:57:37;101416.13;;;22.08;100.00
8627;BME280;4351;51.422;6.794;2023-06-26T07:00:07;101424.03;;;21.93;100.00
8627;BME280;4351;51.422;6.794;2023-06-26T07:02:36;101431.81;;;21.98;100.00
8627;BME280;4351;51.422;6.794;2023-06-26T07:05:05;101442.81;;;21.88;100.00
8627;BME280;4351;51.422;6.794;2023-06-26T07:07:34;101435.44;;;21.98;100.00
8627;BME280;4351;51.422;6.794;2023-06-26T07:10:05;101428.88;;;22.09;100.00
8627;BME280;4351;51.422;6.794;2023-06-26T07:12:34;101439.53;;;21.84;100.00
8627;BME280;4351;51.422;6.794;2023-06-26T07:15:03;101438.09;;;21.70;100.00
8627;BME280;4351;51.422;6.794;2023-06-26T07:17:32;101441.88;;;21.69;100.00
8627;BME280;4351;51.422;6.794;2023-06-26T07:20:01;101438.88;;;21.62;100.00
8627;BME280;4351;51.422;6.794;2023-06-26T07:22:32;101445.50;;;21.69;100.00
8627;BME280;4351;51.422;6.794;2023-06-26T07:25:00;101440.66;;;21.81;100.00
8627;BME280;4351;51.422;6.794;2023-06-26T07:27:29;101437.66;;;21.85;100.00
8627;BME280;4351;51.422;6.794;2023-06-26T07:29:57;101422.88;;;21.96;100.00
8627;BME280;4351;51.422;6.794;2023-06-26T07:32:25;101429.69;;;21.91;100.00
8627;BME280;4351;51.422;6.794;2023-06-26T07:34:53;101425.63;;;21.96;100.00
8627;BME280;4351;51.422;6.794;2023-06-26T07:37:21;101429.88;;;22.08;100.00
8627;BME280;4351;51.422;6.794;2023-06-26T07:39:49;101439.13;;;22.07;100.00
8627;BME280;4351;51.422;6.794;2023-06-26T07:42:17;101439.72;;;22.01;100.00
8627;BME280;4351;51.422;6.794;2023-06-26T07:44:46;101444.88;;;22.14;100.00
8627;BME280;4351;51.422;6.794;2023-06-26T07:47:14;101456.13;;;21.92;100.00
8627;BME280;4351;51.422;6.794;2023-06-26T07:49:42;101457.69;;;21.95;100.00
8627;BME280;4351;51.422;6.794;2023-06-26T07:52:11;101454.19;;;22.03;100.00
8627;BME280;4351;51.422;6.794;2023-06-26T07:54:38;101461.41;;;22.04;100.00
8627;BME280;4351;51.422;6.794;2023-06-26T07:57:07;101460.72;;;21.92;100.00
8627;BME280;4351;51.422;6.794;2023-06-26T07:59:35;101453.16;;;22.32;100.00
8627;BME280;4351;51.422;6.794;2023-06-26T08:02:05;101462.06;;;22.16;100.00
8627;BME280;4351;51.422;6.794;2023-06-26T08:04:33;101471.59;;;22.22;100.00
8627;BME280;4351;51.422;6.794;2023-06-26T08:07:05;101464.16;;;22.32;100.00
8627;BME280;4351;51.422;6.794;2023-06-26T08:09:33;101465.38;;;22.20;100.00
8627;BME280;4351;51.422;6.794;2023-06-26T08:12:06;101480.72;;;22.22;100.00
8627;BME280;4351;51.422;6.794;2023-06-26T08:14:36;101473.09;;;22.34;100.00
8627;BME280;4351;51.422;6.794;2023-06-26T08:17:06;101477.63;;;22.25;100.00
8627;BME280;4351;51.422;6.794;2023-06-26T08:19:34;101484.47;;;22.21;100.00
8627;BME280;4351;51.422;6.794;2023-06-26T08:22:03;101476.19;;;22.31;100.00
8627;BME280;4351;51.422;6.794;2023-06-26T08:24:34;101475.31;;;22.49;100.00
8627;BME280;4351;51.422;6.794;2023-06-26T08:27:04;101474.69;;;22.37;100.00
8627;BME280;4351;51.422;6.794;2023-06-26T08:29:34;101480.81;;;22.31;100.00
8627;BME280;4351;51.422;6.794;2023-06-26T08:32:02;101480.09;;;22.28;100.00
8627;BME280;4351;51.422;6.794;2023-06-26T08:34:32;101485.59;;;22.28;100.00
8627;BME280;4351;51.422;6.794;2023-06-26T08:37:00;101483.47;;;22.40;100.00
8627;BME280;4351;51.422;6.794;2023-06-26T08:39:28;101496.13;;;22.33;100.00
8627;BME280;4351;51.422;6.794;2023-06-26T08:41:56;101496.56;;;22.28;100.00
8627;BME280;4351;51.422;6.794;2023-06-26T08:44:24;101499.69;;;22.15;100.00
8627;BME280;4351;51.422;6.794;2023-06-26T08:46:52;101501.34;;;22.26;100.00
8627;BME280;4351;51.422;6.794;2023-06-26T08:49:21;101500.41;;;22.36;100.00
8627;BME280;4351;51.422;6.794;2023-06-26T08:51:58;101498.25;;;22.39;100.00
8627;BME280;4351;51.422;6.794;2023-06-26T08:54:34;101500.38;;;22.46;100.00
8627;BME280;4351;51.422;6.794;2023-06-26T08:57:05;101506.63;;;22.38;100.00
8627;BME280;4351;51.422;6.794;2023-06-26T08:59:34;101505.56;;;22.49;100.00
8627;BME280;4351;51.422;6.794;2023-06-26T09:02:02;101496.09;;;22.61;100.00
8627;BME280;4351;51.422;6.794;2023-06-26T09:04:30;101516.16;;;22.72;100.00
8627;BME280;4351;51.422;6.794;2023-06-26T09:06:59;101506.75;;;22.74;100.00
8627;BME280;4351;51.422;6.794;2023-06-26T09:09:28;101514.03;;;22.56;100.00
8627;BME280;4351;51.422;6.794;2023-06-26T09:11:56;101499.81;;;22.70;100.00
8627;BME280;4351;51.422;6.794;2023-06-26T09:14:24;101494.88;;;22.74;100.00
8627;BME280;4351;51.422;6.794;2023-06-26T09:16:52;101483.75;;;22.66;100.00
8627;BME280;4351;51.422;6.794;2023-06-26T09:19:20;101477.56;;;23.00;100.00
8627;BME280;4351;51.422;6.794;2023-06-26T09:21:50;101482.78;;;23.03;100.00
8627;BME280;4351;51.422;6.794;2023-06-26T09:24:20;101488.44;;;22.83;100.00
8627;BME280;4351;51.422;6.794;2023-06-26T09:26:49;101487.78;;;23.08;100.00
8627;BME280;4351;51.422;6.794;2023-06-26T09:29:19;101479.91;;;23.13;100.00
8627;BME280;4351;51.422;6.794;2023-06-26T09:31:47;101492.75;;;23.04;100.00
8627;BME280;4351;51.422;6.794;2023-06-26T09:34:15;101504.31;;;22.90;100.00
8627;BME280;4351;51.422;6.794;2023-06-26T09:36:43;101491.25;;;22.92;100.00
8627;BME280;4351;51.422;6.794;2023-06-26T09:39:13;101492.72;;;22.86;100.00
8627;BME280;4351;51.422;6.794;2023-06-26T09:41:43;101492.53;;;22.79;100.00
8627;BME280;4351;51.422;6.794;2023-06-26T09:44:13;101485.34;;;22.87;100.00
8627;BME280;4351;51.422;6.794;2023-06-26T09:46:45;101469.53;;;23.25;100.00
8627;BME280;4351;51.422;6.794;2023-06-26T09:49:13;101486.41;;;22.85;100.00
8627;BME280;4351;51.422;6.794;2023-06-26T09:51:42;101495.97;;;22.81;100.00
8627;BME280;4351;51.422;6.794;2023-06-26T09:54:10;101497.53;;;22.84;100.00
8627;BME280;4351;51.422;6.794;2023-06-26T09:56:38;101501.47;;;22.81;100.00
8627;BME280;4351;51.422;6.794;2023-06-26T09:59:08;101503.50;;;22.97;100.00
8627;BME280;4351;51.422;6.794;2023-06-26T10:01:41;101501.47;;;22.81;100.00
8627;BME280;4351;51.422;6.794;2023-06-26T10:04:09;101498.25;;;23.04;100.00
8627;BME280;4351;51.422;6.794;2023-06-26T10:06:41;101509.00;;;23.16;100.00
8627;BME280;4351;51.422;6.794;2023-06-26T10:09:12;101492.16;;;23.19;100.00
8627;BME280;4351;51.422;6.794;2023-06-26T10:11:47;101477.91;;;23.42;100.00
8627;BME280;4351;51.422;6.794;2023-06-26T10:14:19;101481.63;;;23.51;100.00
8627;BME280;4351;51.422;6.794;2023-06-26T10:16:49;101476.31;;;23.58;100.00
8627;BME280;4351;51.422;6.794;2023-06-26T10:19:19;101462.22;;;23.61;100.00
8627;BME280;4351;51.422;6.794;2023-06-26T10:21:52;101470.81;;;23.84;100.00
8627;BME280;4351;51.422;6.794;2023-06-26T10:24:20;101458.47;;;23.97;100.00
8627;BME280;4351;51.422;6.794;2023-06-26T10:26:52;101477.41;;;23.65;100.00
8627;BME280;4351;51.422;6.794;2023-06-26T10:29:22;101479.13;;;23.66;100.00
8627;BME280;4351;51.422;6.794;2023-06-26T10:31:54;101476.50;;;23.56;100.00
8627;BME280;4351;51.422;6.794;2023-06-26T10:34:24;101483.31;;;23.52;100.00
8627;BME280;4351;51.422;6.794;2023-06-26T10:36:58;101482.97;;;23.73;100.00
8627;BME280;4351;51.422;6.794;2023-06-26T10:39:27;101478.97;;;23.68;100.00
8627;BME280;4351;51.422;6.794;2023-06-26T10:42:08;101495.59;;;23.58;100.00
8627;BME280;4351;51.422;6.794;2023-06-26T10:44:42;101496.63;;;23.57;100.00
8627;BME280;4351;51.422;6.794;2023-06-26T10:47:11;101489.56;;;23.54;100.00
8627;BME280;4351;51.422;6.794;2023-06-26T10:49:46;101486.63;;;23.56;100.00
8627;BME280;4351;51.422;6.794;2023-06-26T10:52:36;101478.81;;;23.69;100.00
8627;BME280;4351;51.422;6.794;2023-06-26T10:55:04;101489.88;;;23.77;100.00
8627;BME280;4351;51.422;6.794;2023-06-26T10:57:36;101489.91;;;23.59;100.00
8627;BME280;4351;51.422;6.794;2023-06-26T11:00:10;101504.09;;;23.64;100.00
8627;BME280;4351;51.422;6.794;2023-06-26T11:02:49;101508.22;;;23.69;100.00
8627;BME280;4351;51.422;6.794;2023-06-26T11:05:24;101513.25;;;23.73;100.00
8627;BME280;4351;51.422;6.794;2023-06-26T11:08:06;101503.97;;;23.74;100.00
8627;BME280;4351;51.422;6.794;2023-06-26T11:10:52;101517.16;;;23.62;100.00
8627;BME280;4351;51.422;6.794;2023-06-26T11:13:21;101503.00;;;23.84;100.00
8627;BME280;4351;51.422;6.794;2023-06-26T11:15:50;101510.38;;;23.83;100.00
8627;BME280;4351;51.422;6.794;2023-06-26T11:18:18;101486.84;;;23.89;100.00
8627;BME280;4351;51.422;6.794;2023-06-26T11:20:46;101478.66;;;24.06;100.00
8627;BME280;4351;51.422;6.794;2023-06-26T11:23:20;101474.16;;;24.05;100.00
8627;BME280;4351;51.422;6.794;2023-06-26T11:25:49;101479.13;;;24.01;100.00
8627;BME280;4351;51.422;6.794;2023-06-26T11:28:17;101487.41;;;24.36;100.00
8627;BME280;4351;51.422;6.794;2023-06-26T11:30:45;101509.00;;;24.22;100.00
8627;BME280;4351;51.422;6.794;2023-06-26T11:33:15;101499.28;;;24.02;100.00
8627;BME280;4351;51.422;6.794;2023-06-26T11:35:42;101494.28;;;23.97;100.00
8627;BME280;4351;51.422;6.794;2023-06-26T11:38:10;101485.69;;;24.00;100.00
8627;BME280;4351;51.422;6.794;2023-06-26T11:40:38;101472.72;;;23.92;100.00
8627;BME280;4351;51.422;6.794;2023-06-26T11:43:09;101457.38;;;24.25;100.00
8627;BME280;4351;51.422;6.794;2023-06-26T11:45:37;101479.34;;;24.08;100.00
8627;BME280;4351;51.422;6.794;2023-06-26T11:48:07;101495.94;;;23.89;100.00
8627;BME280;4351;51.422;6.794;2023-06-26T11:50:38;101484.69;;;23.74;100.00
8627;BME280;4351;51.422;6.794;2023-06-26T11:53:06;101476.81;;;23.80;100.00
8627;BME280;4351;51.422;6.794;2023-06-26T11:55:41;101489.94;;;23.94;100.00
8627;BME280;4351;51.422;6.794;2023-06-26T11:58:09;101496.19;;;24.05;100.00
8627;BME280;4351;51.422;6.794;2023-06-26T12:00:41;101515.38;;;23.80;100.00
8627;BME280;4351;51.422;6.794;2023-06-26T12:03:10;101528.47;;;23.86;100.00
8627;BME280;4351;51.422;6.794;2023-06-26T12:05:39;101528.44;;;23.77;100.00
8627;BME280;4351;51.422;6.794;2023-06-26T12:08:08;101495.69;;;23.74;100.00
8627;BME280;4351;51.422;6.794;2023-06-26T12:10:36;101498.44;;;23.74;100.00
8627;BME280;4351;51.422;6.794;2023-06-26T12:13:04;101481.22;;;23.72;100.00
8627;BME280;4351;51.422;6.794;2023-06-26T12:15:32;101500.28;;;23.92;100.00
8627;BME280;4351;51.422;6.794;2023-06-26T12:18:07;101465.50;;;23.91;100.00
8627;BME280;4351;51.422;6.794;2023-06-26T12:20:41;101476.88;;;23.96;100.00
8627;BME280;4351;51.422;6.794;2023-06-26T12:23:12;101479.03;;;24.11;100.00
8627;BME280;4351;51.422;6.794;2023-06-26T12:25:40;101479.53;;;24.15;100.00
8627;BME280;4351;51.422;6.794;2023-06-26T12:28:16;101478.94;;;24.38;100.00
8627;BME280;4351;51.422;6.794;2023-06-26T12:30:47;101494.50;;;24.47;100.00
8627;BME280;4351;51.422;6.794;2023-06-26T12:33:15;101523.25;;;24.44;100.00
8627;BME280;4351;51.422;6.794;2023-06-26T12:35:45;101525.00;;;24.45;100.00
8627;BME280;4351;51.422;6.794;2023-06-26T12:38:13;101525.78;;;24.29;100.00
8627;BME280;4351;51.422;6.794;2023-06-26T12:40:47;101518.09;;;24.41;100.00
8627;BME280;4351;51.422;6.794;2023-06-26T12:43:22;101508.50;;;24.62;100.00
8627;BME280;4351;51.422;6.794;2023-06-26T12:45:54;101499.78;;;24.23;100.00
8627;BME280;4351;51.422;6.794;2023-06-26T12:48:22;101521.69;;;24.07;100.00
8627;BME280;4351;51.422;6.794;2023-06-26T12:50:51;101522.31;;;23.92;100.00
8627;BME280;4351;51.422;6.794;2023-06-26T12:53:20;101498.00;;;24.22;100.00
8627;BME280;4351;51.422;6.794;2023-06-26T12:55:48;101510.88;;;24.14;100.00
8627;BME280;4351;51.422;6.794;2023-06-26T12:58:15;101507.31;;;24.21;100.00
8627;BME280;4351;51.422;6.794;2023-06-26T13:00:44;101507.19;;;24.31;100.00
8627;BME280;4351;51.422;6.794;2023-06-26T13:03:11;101501.06;;;24.11;100.00
8627;BME280;4351;51.422;6.794;2023-06-26T13:05:39;101500.81;;;24.31;100.00
8627;BME280;4351;51.422;6.794;2023-06-26T13:08:09;101504.31;;;24.41;100.00
8627;BME280;4351;51.422;6.794;2023-06-26T13:10:38;101494.47;;;24.39;100.00
8627;BME280;4351;51.422;6.794;2023-06-26T13:13:06;101513.09;;;24.45;100.00